Capewater — PBPQ — position and weather

sailwx.info

Track history (hours):
 
Tides and Currents Weather Stations Pressure Air Temp Water Temp Dewpoint Dewpoint Depression Visibility Wind Speed Wind Dir Waves Ship Positions

Capewater

Last reported at 2014-Aug-21 07:31 UTC. Time now 2014-Aug-21 08:20 UTC.
Position N 49°28' E 000°14'.

Length 100 m; draft 7 m.

Type: Tanker. MMSI: 246346000.

Date/timePositionNaut miles runAvg speedWind from/ knotsBaromVisibWave heightAir tempDewpointWater temp
2014-Aug-21 07:31N 49°28' E 000°14'0 0.0
2014-Aug-21 06:31N 49°28' E 000°14'0 0.0
2014-Aug-21 05:25N 49°28' E 000°14'0 0.0
2014-Aug-21 04:31N 49°28' E 000°14'0 0.0
2014-Aug-21 03:25N 49°28' E 000°14'2 2.2
2014-Aug-21 02:34N 49°29' E 000°11'1 1.2
2014-Aug-21 01:34N 49°28' E 000°09'1211.6
2014-Aug-21 00:34N 49°32' W 000°08'6 5.8
2014-Aug-20 23:32N 49°36' W 000°14'0 0.1
2014-Aug-20 22:32N 49°36' W 000°14'0 0.1
2014-Aug-20 21:32N 49°36' W 000°14'0 0.0
2014-Aug-20 20:32N 49°36' W 000°14'0 0.0
2014-Aug-20 19:32N 49°36' W 000°14'0 0.0
2014-Aug-20 18:32N 49°36' W 000°14'0 0.0
2014-Aug-20 17:32N 49°36' W 000°14'0 0.0
2014-Aug-20 16:32N 49°36' W 000°14'0 0.0
2014-Aug-20 15:29N 49°36' W 000°14'0 0.0
2014-Aug-20 14:32N 49°36' W 000°14'0 0.0
2014-Aug-20 13:32N 49°36' W 000°14'0 0.0
2014-Aug-20 12:32N 49°36' W 000°14'0 0.0
2014-Aug-20 11:32N 49°36' W 000°14'0 0.0
2014-Aug-20 10:32N 49°36' W 000°14'0 0.0
2014-Aug-20 09:32N 49°36' W 000°14'0 0.1
2014-Aug-20 08:32N 49°36' W 000°14'0 0.0
2014-Aug-20 07:32N 49°36' W 000°14'0 0.0
2014-Aug-20 06:32N 49°36' W 000°14'0 0.0
2014-Aug-20 05:32N 49°36' W 000°14'0 0.0
2014-Aug-20 04:32N 49°36' W 000°14'0 0.0
2014-Aug-20 03:32N 49°36' W 000°14'0 0.0
2014-Aug-20 02:32N 49°36' W 000°14'0 0.0
2014-Aug-20 01:32N 49°36' W 000°14'0 0.0
2014-Aug-20 00:32N 49°36' W 000°14'0 0.0
2014-Aug-19 23:32N 49°36' W 000°14'0 0.0
2014-Aug-19 22:32N 49°36' W 000°14'0 0.0
2014-Aug-19 21:32N 49°36' W 000°14'0 0.0
2014-Aug-19 20:29N 49°36' W 000°14'0 0.0
2014-Aug-19 19:32N 49°36' W 000°14'0 0.0
2014-Aug-19 18:32N 49°36' W 000°14'0 0.0
2014-Aug-19 17:32N 49°36' W 000°14'0 0.0
2014-Aug-19 16:32N 49°36' W 000°14'0 0.0
2014-Aug-19 15:32N 49°36' W 000°14'0 0.0
2014-Aug-19 14:29N 49°36' W 000°14'0 0.0
2014-Aug-19 13:32N 49°36' W 000°14'0 0.0
2014-Aug-19 12:32N 49°36' W 000°14'0 0.0
2014-Aug-19 11:32N 49°36' W 000°14'0 0.0
2014-Aug-19 10:29N 49°36' W 000°14'0 0.0
2014-Aug-19 09:32N 49°36' W 000°14'0 0.0
2014-Aug-19 08:26N 49°36' W 000°14'0 0.0
2014-Aug-19 07:32N 49°36' W 000°14'0 0.0
2014-Aug-19 06:32N 49°36' W 000°14'0 0.0
2014-Aug-19 05:32N 49°36' W 000°14'0 0.0
2014-Aug-19 04:32N 49°36' W 000°14'0 0.0
2014-Aug-19 03:32N 49°36' W 000°14'0 0.0
2014-Aug-19 02:32N 49°36' W 000°13'0 0.0
2014-Aug-19 01:32N 49°36' W 000°14'0 0.0
2014-Aug-19 00:32N 49°36' W 000°14'0 0.0
2014-Aug-18 23:32N 49°36' W 000°14'0 0.0
2014-Aug-18 22:32N 49°36' W 000°14'0 0.0
2014-Aug-18 21:32N 49°36' W 000°14'0 0.0
2014-Aug-18 20:32N 49°36' W 000°14'0 0.0
2014-Aug-18 19:32N 49°36' W 000°14'0 0.0
2014-Aug-18 18:32N 49°36' W 000°14'5911.2
2014-Aug-18 13:13N 50°33' E 000°17'812.7
2014-Aug-18 12:33N 50°35' E 000°29'1313.4
2014-Aug-18 11:33N 50°41' E 000°48'1414.2
2014-Aug-18 10:33N 50°50' E 001°05'1414.5
2014-Aug-18 09:33N 51°01' E 001°21'1313.3
2014-Aug-18 08:33N 51°09' E 001°37'1212.2
2014-Aug-18 07:33N 51°20' E 001°45'1212.4
2014-Aug-18 06:33N 51°33' E 001°46'1313.1
2014-Aug-18 05:34N 51°46' E 001°44'1313.2
2014-Aug-18 04:33N 51°59' E 001°47'1413.8
2014-Aug-18 03:33N 52°12' E 001°55'2914.3
2014-Aug-18 01:33N 52°40' E 002°03'1514.8
2014-Aug-18 00:33N 52°50' E 001°46'8113.5
2014-Aug-17 18:33N 53°37' W 000°04'4 3.5
2014-Aug-17 17:20N 53°38' W 000°11'0 0.0
2014-Aug-17 16:32N 53°38' W 000°11'0 0.0
2014-Aug-17 15:32N 53°38' W 000°11'0 0.0
2014-Aug-17 14:32N 53°38' W 000°11'0 0.0
2014-Aug-17 13:32N 53°38' W 000°11'0 0.0
2014-Aug-17 12:11N 53°38' W 000°11'0 0.0
2014-Aug-17 11:29N 53°38' W 000°11'0 0.0
2014-Aug-17 10:23N 53°38' W 000°11'0 0.0
2014-Aug-17 09:29N 53°38' W 000°11'0 0.0
2014-Aug-17 08:32N 53°38' W 000°11'0 0.0
2014-Aug-17 07:32N 53°38' W 000°11'0 0.0
2014-Aug-17 06:29N 53°38' W 000°11'0 0.0
2014-Aug-17 05:32N 53°38' W 000°11'0 0.0
2014-Aug-17 04:29N 53°38' W 000°11'0 0.0
2014-Aug-17 03:29N 53°38' W 000°11'0 0.0
2014-Aug-17 02:32N 53°38' W 000°11'0 0.0
2014-Aug-17 01:32N 53°38' W 000°11'0 0.0
2014-Aug-17 00:32N 53°38' W 000°11'0 0.0
2014-Aug-16 23:32N 53°38' W 000°11'0 0.0
2014-Aug-16 22:23N 53°38' W 000°11'0 0.0
2014-Aug-16 21:26N 53°38' W 000°11'0 0.0
2014-Aug-16 20:23N 53°38' W 000°11'0 0.0
2014-Aug-16 19:23N 53°38' W 000°11'0 0.0
2014-Aug-16 18:23N 53°38' W 000°11'0 0.0
2014-Aug-16 17:29N 53°38' W 000°11'0 0.0
2014-Aug-16 16:26N 53°38' W 000°11'0 0.0
2014-Aug-16 15:32N 53°38' W 000°11'0 0.0
2014-Aug-16 14:32N 53°38' W 000°11'0 0.0
2014-Aug-16 13:32N 53°38' W 000°11'0 0.0
2014-Aug-16 12:32N 53°38' W 000°11'0 0.0
2014-Aug-16 11:32N 53°38' W 000°11'0 0.0
2014-Aug-16 10:23N 53°38' W 000°11'0 0.0
2014-Aug-16 09:23N 53°38' W 000°11'0 0.0
2014-Aug-16 08:23N 53°38' W 000°11'3 4.0
2014-Aug-16 07:33N 53°37' W 000°06'1111.0
2014-Aug-16 06:33N 53°33' E 000°11'10 9.6
2014-Aug-16 05:33N 53°39' E 000°23'1110.8
2014-Aug-16 04:33N 53°50' E 000°20'1211.8
2014-Aug-16 03:34N 54°02' E 000°20'1111.0
2014-Aug-16 02:33N 54°13' E 000°19'1010.1
2014-Aug-16 01:34N 54°22' E 000°13'1111.0
2014-Aug-16 00:34N 54°30' W 000°01'1111.2
2014-Aug-15 23:33N 54°37' W 000°16'1413.4
2014-Aug-15 22:31N 54°40' W 000°39'1414.9
2014-Aug-15 21:33N 54°40' W 001°04'6 1.1
2014-Aug-15 16:04N 54°36' W 001°11'0 0.0
2014-Aug-15 15:31N 54°36' W 001°11'0 0.0
2014-Aug-15 14:22N 54°36' W 001°11'0 0.0
2014-Aug-15 12:19N 54°36' W 001°11'0 0.0
2014-Aug-15 11:10N 54°36' W 001°11'0 0.0
2014-Aug-15 10:25N 54°36' W 001°11'0 0.0
2014-Aug-15 09:25N 54°36' W 001°11'0 0.0
2014-Aug-15 08:10N 54°36' W 001°11'0 0.0
2014-Aug-15 07:25N 54°36' W 001°11'0 0.0
2014-Aug-15 06:25N 54°36' W 001°11'0 0.0
2014-Aug-15 05:10N 54°36' W 001°11'0 0.0
2014-Aug-14 17:18N 54°36' W 001°10'5 7.4
2014-Aug-14 16:34N 54°40' W 001°05'0 0.2
2014-Aug-14 15:26N 54°40' W 001°04'0 0.0
2014-Aug-14 14:25N 54°40' W 001°04'0 0.1
2014-Aug-14 13:29N 54°40' W 001°04'0 0.0
2014-Aug-14 12:25N 54°41' W 001°04'0 0.0
2014-Aug-14 11:28N 54°41' W 001°04'0 0.0
2014-Aug-14 10:28N 54°41' W 001°04'3 3.0
2014-Aug-14 09:33N 54°40' W 000°60'1613.0
2014-Aug-14 08:18N 54°34' W 000°33'911.7
2014-Aug-14 07:33N 54°29' W 000°21'1111.5
2014-Aug-14 06:33N 54°20' W 000°08'1110.8
2014-Aug-14 05:33N 54°11' E 000°01'1110.9
2014-Aug-14 04:33N 54°02' E 000°10'1212.0
2014-Aug-14 03:33N 53°51' E 000°20'1312.9
2014-Aug-14 02:32N 53°40' E 000°31'3213.4
2014-Aug-14 00:11N 53°19' E 001°11'812.8
2014-Aug-13 23:33N 53°12' E 001°18'1211.6
2014-Aug-13 22:33N 53°02' E 001°27'1010.3
2014-Aug-13 21:33N 52°54' E 001°38'1010.3
2014-Aug-13 20:33N 52°49' E 001°52'1111.2
2014-Aug-13 19:33N 52°41' E 002°07'1414.1
2014-Aug-13 18:34N 52°28' E 002°13'5112.3
2014-Aug-13 14:23N 51°45' E 002°58'1211.0
2014-Aug-13 13:18N 51°42' E 003°17'7 9.9
2014-Aug-13 12:34N 51°36' E 003°23'10 9.8
2014-Aug-13 11:34N 51°28' E 003°31'8 7.9
2014-Aug-13 10:33N 51°25' E 003°43'9 9.4
2014-Aug-13 09:33N 51°25' E 003°58'1110.7
2014-Aug-13 08:33N 51°22' E 004°14'6 6.1
2014-Aug-13 07:34N 51°17' E 004°20'0 0.1
2014-Aug-13 06:34N 51°17' E 004°20'1 1.0
2014-Aug-13 05:32N 51°16' E 004°20'0 0.0
2014-Aug-13 04:32N 51°16' E 004°20'0 0.0
2014-Aug-13 03:32N 51°16' E 004°20'0 0.0
2014-Aug-13 02:32N 51°16' E 004°20'0 0.0
2014-Aug-13 01:32N 51°16' E 004°20'0 0.0
2014-Aug-13 00:32N 51°16' E 004°20'0 0.0
2014-Aug-12 23:32N 51°16' E 004°20'0 0.0
2014-Aug-12 22:32N 51°16' E 004°20'0 0.0
2014-Aug-12 21:29N 51°16' E 004°20'0 0.0
2014-Aug-12 20:32N 51°16' E 004°20'0 0.0
2014-Aug-12 19:32N 51°16' E 004°20'0 0.0
2014-Aug-12 18:32N 51°16' E 004°20'0 0.0
2014-Aug-12 17:32N 51°16' E 004°20'0 0.0
2014-Aug-12 16:29N 51°16' E 004°20'0 0.0
2014-Aug-12 15:32N 51°16' E 004°20'0 0.0
2014-Aug-12 14:32N 51°16' E 004°20'0 0.0
2014-Aug-12 13:32N 51°16' E 004°20'0 0.0
2014-Aug-12 12:32N 51°16' E 004°20'0 0.0
2014-Aug-12 11:29N 51°16' E 004°20'0 0.0
2014-Aug-12 10:32N 51°16' E 004°20'0 0.0
2014-Aug-12 09:32N 51°16' E 004°20'0 0.0
2014-Aug-12 08:32N 51°16' E 004°20'0 0.0
2014-Aug-12 07:29N 51°16' E 004°20'0 0.0
2014-Aug-12 06:32N 51°16' E 004°20'2 1.9
2014-Aug-12 05:33N 51°17' E 004°20'4 3.8
2014-Aug-12 04:33N 51°21' E 004°17'1 0.6
2014-Aug-12 03:34N 51°21' E 004°16'7 6.5
2014-Aug-12 02:33N 51°22' E 004°06'6 6.3
2014-Aug-12 01:34N 51°22' E 003°56'1312.7
2014-Aug-12 00:33N 51°26' E 003°36'1211.8
2014-Aug-11 23:33N 51°35' E 003°24'1313.1
2014-Aug-11 22:32N 51°47' E 003°15'19 5.9
2014-Aug-11 19:14N 52°03' E 003°32'5 7.2
2014-Aug-11 18:33N 52°04' E 003°39'7 7.5
2014-Aug-11 17:33N 52°02' E 003°51'1010.0
2014-Aug-11 16:33N 51°59' E 004°07'9 9.4
2014-Aug-11 15:33N 51°53' E 004°18'0 0.0
2014-Aug-11 14:31N 51°53' E 004°18'0 0.0
2014-Aug-11 13:31N 51°53' E 004°18'0 0.0
2014-Aug-11 12:31N 51°53' E 004°18'0 0.0
2014-Aug-11 11:31N 51°53' E 004°18'0 0.0
2014-Aug-11 10:31N 51°53' E 004°18'0 0.0
2014-Aug-11 09:28N 51°53' E 004°18'0 0.0
2014-Aug-11 08:25N 51°53' E 004°18'  
Track history (hours):
 
Tides and Currents Weather Stations Pressure Air Temp Water Temp Dewpoint Dewpoint Depression Visibility Wind Speed Wind Dir Waves Ship Positions

Capewater

Last reported at 2014-Aug-21 07:31 UTC. Time now 2014-Aug-21 08:20 UTC.
Position N 49°28' E 000°14'.

Length 100 m; draft 7 m.

Type: Tanker. MMSI: 246346000.

Date/timePositionNaut miles runAvg speedWind from/ knotsBaromVisibWave heightAir tempDewpointWater temp
2014-Aug-21 07:31N 49°28' E 000°14'0 0.0
2014-Aug-21 06:31N 49°28' E 000°14'0 0.0
2014-Aug-21 05:25N 49°28' E 000°14'0 0.0
2014-Aug-21 04:31N 49°28' E 000°14'0 0.0
2014-Aug-21 03:25N 49°28' E 000°14'2 2.2
2014-Aug-21 02:34N 49°29' E 000°11'1 1.2
2014-Aug-21 01:34N 49°28' E 000°09'1211.6
2014-Aug-21 00:34N 49°32' W 000°08'6 5.8
2014-Aug-20 23:32N 49°36' W 000°14'0 0.1
2014-Aug-20 22:32N 49°36' W 000°14'0 0.1
2014-Aug-20 21:32N 49°36' W 000°14'0 0.0
2014-Aug-20 20:32N 49°36' W 000°14'0 0.0
2014-Aug-20 19:32N 49°36' W 000°14'0 0.0
2014-Aug-20 18:32N 49°36' W 000°14'0 0.0
2014-Aug-20 17:32N 49°36' W 000°14'0 0.0
2014-Aug-20 16:32N 49°36' W 000°14'0 0.0
2014-Aug-20 15:29N 49°36' W 000°14'0 0.0
2014-Aug-20 14:32N 49°36' W 000°14'0 0.0
2014-Aug-20 13:32N 49°36' W 000°14'0 0.0
2014-Aug-20 12:32N 49°36' W 000°14'0 0.0
2014-Aug-20 11:32N 49°36' W 000°14'0 0.0
2014-Aug-20 10:32N 49°36' W 000°14'0 0.0
2014-Aug-20 09:32N 49°36' W 000°14'0 0.1
2014-Aug-20 08:32N 49°36' W 000°14'0 0.0
2014-Aug-20 07:32N 49°36' W 000°14'0 0.0
2014-Aug-20 06:32N 49°36' W 000°14'0 0.0
2014-Aug-20 05:32N 49°36' W 000°14'0 0.0
2014-Aug-20 04:32N 49°36' W 000°14'0 0.0
2014-Aug-20 03:32N 49°36' W 000°14'0 0.0
2014-Aug-20 02:32N 49°36' W 000°14'0 0.0
2014-Aug-20 01:32N 49°36' W 000°14'0 0.0
2014-Aug-20 00:32N 49°36' W 000°14'0 0.0
2014-Aug-19 23:32N 49°36' W 000°14'0 0.0
2014-Aug-19 22:32N 49°36' W 000°14'0 0.0
2014-Aug-19 21:32N 49°36' W 000°14'0 0.0
2014-Aug-19 20:29N 49°36' W 000°14'0 0.0
2014-Aug-19 19:32N 49°36' W 000°14'0 0.0
2014-Aug-19 18:32N 49°36' W 000°14'0 0.0
2014-Aug-19 17:32N 49°36' W 000°14'0 0.0
2014-Aug-19 16:32N 49°36' W 000°14'0 0.0
2014-Aug-19 15:32N 49°36' W 000°14'0 0.0
2014-Aug-19 14:29N 49°36' W 000°14'0 0.0
2014-Aug-19 13:32N 49°36' W 000°14'0 0.0
2014-Aug-19 12:32N 49°36' W 000°14'0 0.0
2014-Aug-19 11:32N 49°36' W 000°14'0 0.0
2014-Aug-19 10:29N 49°36' W 000°14'0 0.0
2014-Aug-19 09:32N 49°36' W 000°14'0 0.0
2014-Aug-19 08:26N 49°36' W 000°14'0 0.0
2014-Aug-19 07:32N 49°36' W 000°14'0 0.0
2014-Aug-19 06:32N 49°36' W 000°14'0 0.0
2014-Aug-19 05:32N 49°36' W 000°14'0 0.0
2014-Aug-19 04:32N 49°36' W 000°14'0 0.0
2014-Aug-19 03:32N 49°36' W 000°14'0 0.0
2014-Aug-19 02:32N 49°36' W 000°13'0 0.0
2014-Aug-19 01:32N 49°36' W 000°14'0 0.0
2014-Aug-19 00:32N 49°36' W 000°14'0 0.0
2014-Aug-18 23:32N 49°36' W 000°14'0 0.0
2014-Aug-18 22:32N 49°36' W 000°14'0 0.0
2014-Aug-18 21:32N 49°36' W 000°14'0 0.0
2014-Aug-18 20:32N 49°36' W 000°14'0 0.0
2014-Aug-18 19:32N 49°36' W 000°14'0 0.0
2014-Aug-18 18:32N 49°36' W 000°14'5911.2
2014-Aug-18 13:13N 50°33' E 000°17'812.7
2014-Aug-18 12:33N 50°35' E 000°29'1313.4
2014-Aug-18 11:33N 50°41' E 000°48'1414.2
2014-Aug-18 10:33N 50°50' E 001°05'1414.5
2014-Aug-18 09:33N 51°01' E 001°21'1313.3
2014-Aug-18 08:33N 51°09' E 001°37'1212.2
2014-Aug-18 07:33N 51°20' E 001°45'1212.4
2014-Aug-18 06:33N 51°33' E 001°46'1313.1
2014-Aug-18 05:34N 51°46' E 001°44'1313.2
2014-Aug-18 04:33N 51°59' E 001°47'1413.8
2014-Aug-18 03:33N 52°12' E 001°55'2914.3
2014-Aug-18 01:33N 52°40' E 002°03'1514.8
2014-Aug-18 00:33N 52°50' E 001°46'8113.5
2014-Aug-17 18:33N 53°37' W 000°04'4 3.5
2014-Aug-17 17:20N 53°38' W 000°11'0 0.0
2014-Aug-17 16:32N 53°38' W 000°11'0 0.0
2014-Aug-17 15:32N 53°38' W 000°11'0 0.0
2014-Aug-17 14:32N 53°38' W 000°11'0 0.0
2014-Aug-17 13:32N 53°38' W 000°11'0 0.0
2014-Aug-17 12:11N 53°38' W 000°11'0 0.0
2014-Aug-17 11:29N 53°38' W 000°11'0 0.0
2014-Aug-17 10:23N 53°38' W 000°11'0 0.0
2014-Aug-17 09:29N 53°38' W 000°11'0 0.0
2014-Aug-17 08:32N 53°38' W 000°11'0 0.0
2014-Aug-17 07:32N 53°38' W 000°11'0 0.0
2014-Aug-17 06:29N 53°38' W 000°11'0 0.0
2014-Aug-17 05:32N 53°38' W 000°11'0 0.0
2014-Aug-17 04:29N 53°38' W 000°11'0 0.0
2014-Aug-17 03:29N 53°38' W 000°11'0 0.0
2014-Aug-17 02:32N 53°38' W 000°11'0 0.0
2014-Aug-17 01:32N 53°38' W 000°11'0 0.0
2014-Aug-17 00:32N 53°38' W 000°11'0 0.0
2014-Aug-16 23:32N 53°38' W 000°11'0 0.0
2014-Aug-16 22:23N 53°38' W 000°11'0 0.0
2014-Aug-16 21:26N 53°38' W 000°11'0 0.0
2014-Aug-16 20:23N 53°38' W 000°11'0 0.0
2014-Aug-16 19:23N 53°38' W 000°11'0 0.0
2014-Aug-16 18:23N 53°38' W 000°11'0 0.0
2014-Aug-16 17:29N 53°38' W 000°11'0 0.0
2014-Aug-16 16:26N 53°38' W 000°11'0 0.0
2014-Aug-16 15:32N 53°38' W 000°11'0 0.0
2014-Aug-16 14:32N 53°38' W 000°11'0 0.0
2014-Aug-16 13:32N 53°38' W 000°11'0 0.0
2014-Aug-16 12:32N 53°38' W 000°11'0 0.0
2014-Aug-16 11:32N 53°38' W 000°11'0 0.0
2014-Aug-16 10:23N 53°38' W 000°11'0 0.0
2014-Aug-16 09:23N 53°38' W 000°11'0 0.0
2014-Aug-16 08:23N 53°38' W 000°11'3 4.0
2014-Aug-16 07:33N 53°37' W 000°06'1111.0
2014-Aug-16 06:33N 53°33' E 000°11'10 9.6
2014-Aug-16 05:33N 53°39' E 000°23'1110.8
2014-Aug-16 04:33N 53°50' E 000°20'1211.8
2014-Aug-16 03:34N 54°02' E 000°20'1111.0
2014-Aug-16 02:33N 54°13' E 000°19'1010.1
2014-Aug-16 01:34N 54°22' E 000°13'1111.0
2014-Aug-16 00:34N 54°30' W 000°01'1111.2
2014-Aug-15 23:33N 54°37' W 000°16'1413.4
2014-Aug-15 22:31N 54°40' W 000°39'1414.9
2014-Aug-15 21:33N 54°40' W 001°04'6 1.1
2014-Aug-15 16:04N 54°36' W 001°11'0 0.0
2014-Aug-15 15:31N 54°36' W 001°11'0 0.0
2014-Aug-15 14:22N 54°36' W 001°11'0 0.0
2014-Aug-15 12:19N 54°36' W 001°11'0 0.0
2014-Aug-15 11:10N 54°36' W 001°11'0 0.0
2014-Aug-15 10:25N 54°36' W 001°11'0 0.0
2014-Aug-15 09:25N 54°36' W 001°11'0 0.0
2014-Aug-15 08:10N 54°36' W 001°11'0 0.0
2014-Aug-15 07:25N 54°36' W 001°11'0 0.0
2014-Aug-15 06:25N 54°36' W 001°11'0 0.0
2014-Aug-15 05:10N 54°36' W 001°11'0 0.0
2014-Aug-14 17:18N 54°36' W 001°10'5 7.4
2014-Aug-14 16:34N 54°40' W 001°05'0 0.2
2014-Aug-14 15:26N 54°40' W 001°04'0 0.0
2014-Aug-14 14:25N 54°40' W 001°04'0 0.1
2014-Aug-14 13:29N 54°40' W 001°04'0 0.0
2014-Aug-14 12:25N 54°41' W 001°04'0 0.0
2014-Aug-14 11:28N 54°41' W 001°04'0 0.0
2014-Aug-14 10:28N 54°41' W 001°04'3 3.0
2014-Aug-14 09:33N 54°40' W 000°60'1613.0
2014-Aug-14 08:18N 54°34' W 000°33'911.7
2014-Aug-14 07:33N 54°29' W 000°21'1111.5
2014-Aug-14 06:33N 54°20' W 000°08'1110.8
2014-Aug-14 05:33N 54°11' E 000°01'1110.9
2014-Aug-14 04:33N 54°02' E 000°10'1212.0
2014-Aug-14 03:33N 53°51' E 000°20'1312.9
2014-Aug-14 02:32N 53°40' E 000°31'3213.4
2014-Aug-14 00:11N 53°19' E 001°11'812.8
2014-Aug-13 23:33N 53°12' E 001°18'1211.6
2014-Aug-13 22:33N 53°02' E 001°27'1010.3
2014-Aug-13 21:33N 52°54' E 001°38'1010.3
2014-Aug-13 20:33N 52°49' E 001°52'1111.2
2014-Aug-13 19:33N 52°41' E 002°07'1414.1
2014-Aug-13 18:34N 52°28' E 002°13'5112.3
2014-Aug-13 14:23N 51°45' E 002°58'1211.0
2014-Aug-13 13:18N 51°42' E 003°17'7 9.9
2014-Aug-13 12:34N 51°36' E 003°23'10 9.8
2014-Aug-13 11:34N 51°28' E 003°31'8 7.9
2014-Aug-13 10:33N 51°25' E 003°43'9 9.4
2014-Aug-13 09:33N 51°25' E 003°58'1110.7
2014-Aug-13 08:33N 51°22' E 004°14'6 6.1
2014-Aug-13 07:34N 51°17' E 004°20'0 0.1
2014-Aug-13 06:34N 51°17' E 004°20'1 1.0
2014-Aug-13 05:32N 51°16' E 004°20'0 0.0
2014-Aug-13 04:32N 51°16' E 004°20'0 0.0
2014-Aug-13 03:32N 51°16' E 004°20'0 0.0
2014-Aug-13 02:32N 51°16' E 004°20'0 0.0
2014-Aug-13 01:32N 51°16' E 004°20'0 0.0
2014-Aug-13 00:32N 51°16' E 004°20'0 0.0
2014-Aug-12 23:32N 51°16' E 004°20'0 0.0
2014-Aug-12 22:32N 51°16' E 004°20'0 0.0
2014-Aug-12 21:29N 51°16' E 004°20'0 0.0
2014-Aug-12 20:32N 51°16' E 004°20'0 0.0
2014-Aug-12 19:32N 51°16' E 004°20'0 0.0
2014-Aug-12 18:32N 51°16' E 004°20'0 0.0
2014-Aug-12 17:32N 51°16' E 004°20'0 0.0
2014-Aug-12 16:29N 51°16' E 004°20'0 0.0
2014-Aug-12 15:32N 51°16' E 004°20'0 0.0
2014-Aug-12 14:32N 51°16' E 004°20'0 0.0
2014-Aug-12 13:32N 51°16' E 004°20'0 0.0
2014-Aug-12 12:32N 51°16' E 004°20'0 0.0
2014-Aug-12 11:29N 51°16' E 004°20'0 0.0
2014-Aug-12 10:32N 51°16' E 004°20'0 0.0
2014-Aug-12 09:32N 51°16' E 004°20'0 0.0
2014-Aug-12 08:32N 51°16' E 004°20'0 0.0
2014-Aug-12 07:29N 51°16' E 004°20'0 0.0
2014-Aug-12 06:32N 51°16' E 004°20'2 1.9
2014-Aug-12 05:33N 51°17' E 004°20'4 3.8
2014-Aug-12 04:33N 51°21' E 004°17'1 0.6
2014-Aug-12 03:34N 51°21' E 004°16'7 6.5
2014-Aug-12 02:33N 51°22' E 004°06'6 6.3
2014-Aug-12 01:34N 51°22' E 003°56'1312.7
2014-Aug-12 00:33N 51°26' E 003°36'1211.8
2014-Aug-11 23:33N 51°35' E 003°24'1313.1
2014-Aug-11 22:32N 51°47' E 003°15'19 5.9
2014-Aug-11 19:14N 52°03' E 003°32'5 7.2
2014-Aug-11 18:33N 52°04' E 003°39'7 7.5
2014-Aug-11 17:33N 52°02' E 003°51'1010.0
2014-Aug-11 16:33N 51°59' E 004°07'9 9.4
2014-Aug-11 15:33N 51°53' E 004°18'0 0.0
2014-Aug-11 14:31N 51°53' E 004°18'0 0.0
2014-Aug-11 13:31N 51°53' E 004°18'0 0.0
2014-Aug-11 12:31N 51°53' E 004°18'0 0.0
2014-Aug-11 11:31N 51°53' E 004°18'0 0.0
2014-Aug-11 10:31N 51°53' E 004°18'0 0.0
2014-Aug-11 09:28N 51°53' E 004°18'0 0.0
2014-Aug-11 08:25N 51°53' E 004°18'  

Dump ship's entire track history